sensor_id;sensor_type;location;lat;lon;timestamp;P1;durP1;ratioP1;P2;durP2;ratioP2
15067;SDS011;7633;60.024;18.770;2023-12-20T00:00:05;1.17;;;0.73;;
15067;SDS011;7633;60.024;18.770;2023-12-20T00:02:30;0.10;;;0.10;;
15067;SDS011;7633;60.024;18.770;2023-12-20T00:04:56;2.00;;;0.13;;
15067;SDS011;7633;60.024;18.770;2023-12-20T00:07:21;2.40;;;0.30;;
15067;SDS011;7633;60.024;18.770;2023-12-20T00:09:46;0.27;;;0.20;;
15067;SDS011;7633;60.024;18.770;2023-12-20T00:12:12;0.63;;;0.27;;
15067;SDS011;7633;60.024;18.770;2023-12-20T00:14:37;0.43;;;0.30;;
15067;SDS011;7633;60.024;18.770;2023-12-20T00:17:02;0.10;;;0.03;;
15067;SDS011;7633;60.024;18.770;2023-12-20T00:19:28;0.13;;;0.13;;
15067;SDS011;7633;60.024;18.770;2023-12-20T00:21:53;1.30;;;0.30;;
15067;SDS011;7633;60.024;18.770;2023-12-20T00:24:18;2.03;;;0.60;;
15067;SDS011;7633;60.024;18.770;2023-12-20T00:26:44;0.20;;;0.20;;
15067;SDS011;7633;60.024;18.770;2023-12-20T00:29:09;1.50;;;0.20;;
15067;SDS011;7633;60.024;18.770;2023-12-20T00:31:35;0.10;;;0.10;;
15067;SDS011;7633;60.024;18.770;2023-12-20T00:34:00;0.00;;;0.00;;
15067;SDS011;7633;60.024;18.770;2023-12-20T00:36:26;0.00;;;0.00;;
15067;SDS011;7633;60.024;18.770;2023-12-20T00:38:51;2.53;;;0.50;;
15067;SDS011;7633;60.024;18.770;2023-12-20T00:41:16;1.43;;;0.30;;
15067;SDS011;7633;60.024;18.770;2023-12-20T00:43:42;0.20;;;0.20;;
15067;SDS011;7633;60.024;18.770;2023-12-20T00:46:07;0.50;;;0.20;;
15067;SDS011;7633;60.024;18.770;2023-12-20T00:48:32;0.00;;;0.00;;
15067;SDS011;7633;60.024;18.770;2023-12-20T00:50:58;0.73;;;0.23;;
15067;SDS011;7633;60.024;18.770;2023-12-20T00:53:23;0.07;;;0.03;;
15067;SDS011;7633;60.024;18.770;2023-12-20T00:55:49;0.20;;;0.13;;
15067;SDS011;7633;60.024;18.770;2023-12-20T00:58:15;0.07;;;0.07;;
15067;SDS011;7633;60.024;18.770;2023-12-20T01:00:40;0.30;;;0.10;;
15067;SDS011;7633;60.024;18.770;2023-12-20T01:03:07;2.00;;;0.20;;
15067;SDS011;7633;60.024;18.770;2023-12-20T01:05:32;0.20;;;0.20;;
15067;SDS011;7633;60.024;18.770;2023-12-20T01:07:57;0.13;;;0.13;;
15067;SDS011;7633;60.024;18.770;2023-12-20T01:10:23;0.10;;;0.10;;
15067;SDS011;7633;60.024;18.770;2023-12-20T01:12:49;0.47;;;0.10;;
15067;SDS011;7633;60.024;18.770;2023-12-20T01:15:14;0.20;;;0.20;;
15067;SDS011;7633;60.024;18.770;2023-12-20T01:17:39;0.60;;;0.10;;
15067;SDS011;7633;60.024;18.770;2023-12-20T01:20:05;0.60;;;0.20;;
15067;SDS011;7633;60.024;18.770;2023-12-20T01:22:31;0.10;;;0.10;;
15067;SDS011;7633;60.024;18.770;2023-12-20T01:24:56;0.43;;;0.43;;
15067;SDS011;7633;60.024;18.770;2023-12-20T01:27:21;1.50;;;0.20;;
15067;SDS011;7633;60.024;18.770;2023-12-20T01:29:47;0.93;;;0.20;;
15067;SDS011;7633;60.024;18.770;2023-12-20T01:32:12;0.70;;;0.50;;
15067;SDS011;7633;60.024;18.770;2023-12-20T01:34:37;0.00;;;0.00;;
15067;SDS011;7633;60.024;18.770;2023-12-20T01:37:03;0.37;;;0.20;;
15067;SDS011;7633;60.024;18.770;2023-12-20T01:39:29;0.83;;;0.20;;
15067;SDS011;7633;60.024;18.770;2023-12-20T01:41:54;1.37;;;0.40;;
15067;SDS011;7633;60.024;18.770;2023-12-20T01:44:22;0.33;;;0.30;;
15067;SDS011;7633;60.024;18.770;2023-12-20T01:46:48;0.33;;;0.23;;
15067;SDS011;7633;60.024;18.770;2023-12-20T01:49:13;1.90;;;0.40;;
15067;SDS011;7633;60.024;18.770;2023-12-20T01:51:38;1.53;;;0.40;;
15067;SDS011;7633;60.024;18.770;2023-12-20T01:54:05;0.00;;;0.00;;
15067;SDS011;7633;60.024;18.770;2023-12-20T01:56:30;0.63;;;0.10;;
15067;SDS011;7633;60.024;18.770;2023-12-20T01:58:55;0.20;;;0.20;;
15067;SDS011;7633;60.024;18.770;2023-12-20T02:01:21;0.23;;;0.10;;
15067;SDS011;7633;60.024;18.770;2023-12-20T02:03:47;1.83;;;0.60;;
15067;SDS011;7633;60.024;18.770;2023-12-20T02:06:12;0.30;;;0.20;;
15067;SDS011;7633;60.024;18.770;2023-12-20T02:08:38;0.10;;;0.10;;
15067;SDS011;7633;60.024;18.770;2023-12-20T02:11:04;0.00;;;0.00;;
15067;SDS011;7633;60.024;18.770;2023-12-20T02:13:30;0.80;;;0.47;;
15067;SDS011;7633;60.024;18.770;2023-12-20T02:15:55;1.13;;;0.40;;
15067;SDS011;7633;60.024;18.770;2023-12-20T02:18:21;0.93;;;0.23;;
15067;SDS011;7633;60.024;18.770;2023-12-20T02:20:46;0.53;;;0.30;;
15067;SDS011;7633;60.024;18.770;2023-12-20T02:23:11;1.07;;;0.30;;
15067;SDS011;7633;60.024;18.770;2023-12-20T02:25:36;0.57;;;0.40;;
15067;SDS011;7633;60.024;18.770;2023-12-20T02:28:02;0.83;;;0.13;;
15067;SDS011;7633;60.024;18.770;2023-12-20T02:30:28;0.87;;;0.10;;
15067;SDS011;7633;60.024;18.770;2023-12-20T02:32:53;0.13;;;0.13;;
15067;SDS011;7633;60.024;18.770;2023-12-20T02:35:19;0.97;;;0.30;;
15067;SDS011;7633;60.024;18.770;2023-12-20T02:37:44;0.40;;;0.17;;
15067;SDS011;7633;60.024;18.770;2023-12-20T02:40:09;0.23;;;0.13;;
15067;SDS011;7633;60.024;18.770;2023-12-20T02:42:35;0.00;;;0.00;;
15067;SDS011;7633;60.024;18.770;2023-12-20T02:45:00;0.70;;;0.20;;
15067;SDS011;7633;60.024;18.770;2023-12-20T02:47:26;0.77;;;0.50;;
15067;SDS011;7633;60.024;18.770;2023-12-20T02:49:51;1.80;;;0.30;;
15067;SDS011;7633;60.024;18.770;2023-12-20T02:52:18;0.20;;;0.17;;
15067;SDS011;7633;60.024;18.770;2023-12-20T02:54:43;0.20;;;0.20;;
15067;SDS011;7633;60.024;18.770;2023-12-20T02:57:09;1.60;;;0.13;;
15067;SDS011;7633;60.024;18.770;2023-12-20T02:59:34;2.87;;;0.50;;
15067;SDS011;7633;60.024;18.770;2023-12-20T03:01:59;0.37;;;0.30;;
15067;SDS011;7633;60.024;18.770;2023-12-20T03:04:24;2.00;;;0.67;;
15067;SDS011;7633;60.024;18.770;2023-12-20T03:06:50;0.20;;;0.20;;
15067;SDS011;7633;60.024;18.770;2023-12-20T03:09:16;1.63;;;0.30;;
15067;SDS011;7633;60.024;18.770;2023-12-20T03:11:41;1.23;;;0.67;;
15067;SDS011;7633;60.024;18.770;2023-12-20T03:14:06;0.33;;;0.10;;
15067;SDS011;7633;60.024;18.770;2023-12-20T03:16:32;0.67;;;0.10;;
15067;SDS011;7633;60.024;18.770;2023-12-20T03:18:58;0.20;;;0.20;;
15067;SDS011;7633;60.024;18.770;2023-12-20T03:21:23;0.00;;;0.00;;
15067;SDS011;7633;60.024;18.770;2023-12-20T03:23:49;0.00;;;0.00;;
15067;SDS011;7633;60.024;18.770;2023-12-20T03:26:14;0.10;;;0.10;;
15067;SDS011;7633;60.024;18.770;2023-12-20T03:28:39;1.23;;;0.20;;
15067;SDS011;7633;60.024;18.770;2023-12-20T03:31:05;1.90;;;0.40;;
15067;SDS011;7633;60.024;18.770;2023-12-20T03:33:30;1.20;;;0.40;;
15067;SDS011;7633;60.024;18.770;2023-12-20T03:35:55;0.60;;;0.13;;
15067;SDS011;7633;60.024;18.770;2023-12-20T03:38:21;0.83;;;0.20;;
15067;SDS011;7633;60.024;18.770;2023-12-20T03:40:47;0.10;;;0.10;;
15067;SDS011;7633;60.024;18.770;2023-12-20T03:43:12;4.90;;;0.87;;
15067;SDS011;7633;60.024;18.770;2023-12-20T03:45:37;3.03;;;0.50;;
15067;SDS011;7633;60.024;18.770;2023-12-20T03:48:03;0.63;;;0.13;;
15067;SDS011;7633;60.024;18.770;2023-12-20T03:50:28;1.60;;;0.10;;
15067;SDS011;7633;60.024;18.770;2023-12-20T03:52:54;0.50;;;0.30;;
15067;SDS011;7633;60.024;18.770;2023-12-20T03:55:19;2.37;;;0.20;;
15067;SDS011;7633;60.024;18.770;2023-12-20T03:57:45;0.33;;;0.33;;
15067;SDS011;7633;60.024;18.770;2023-12-20T04:00:10;0.10;;;0.10;;
15067;SDS011;7633;60.024;18.770;2023-12-20T04:02:36;3.27;;;0.60;;
15067;SDS011;7633;60.024;18.770;2023-12-20T04:05:01;2.37;;;0.20;;
15067;SDS011;7633;60.024;18.770;2023-12-20T04:07:27;0.97;;;0.60;;
15067;SDS011;7633;60.024;18.770;2023-12-20T04:09:52;1.10;;;0.30;;
15067;SDS011;7633;60.024;18.770;2023-12-20T04:12:17;0.27;;;0.10;;
15067;SDS011;7633;60.024;18.770;2023-12-20T04:14:43;0.43;;;0.13;;
15067;SDS011;7633;60.024;18.770;2023-12-20T04:17:08;2.57;;;0.23;;
15067;SDS011;7633;60.024;18.770;2023-12-20T04:19:33;0.40;;;0.23;;
15067;SDS011;7633;60.024;18.770;2023-12-20T04:21:59;0.30;;;0.30;;
15067;SDS011;7633;60.024;18.770;2023-12-20T04:24:24;0.37;;;0.30;;
15067;SDS011;7633;60.024;18.770;2023-12-20T04:26:49;1.03;;;0.20;;
15067;SDS011;7633;60.024;18.770;2023-12-20T04:29:15;0.80;;;0.30;;
15067;SDS011;7633;60.024;18.770;2023-12-20T04:31:40;1.37;;;1.03;;
15067;SDS011;7633;60.024;18.770;2023-12-20T04:34:05;2.60;;;0.47;;
15067;SDS011;7633;60.024;18.770;2023-12-20T04:36:31;0.23;;;0.17;;
15067;SDS011;7633;60.024;18.770;2023-12-20T04:38:56;0.80;;;0.27;;
15067;SDS011;7633;60.024;18.770;2023-12-20T04:41:21;0.07;;;0.07;;
15067;SDS011;7633;60.024;18.770;2023-12-20T04:43:46;1.60;;;0.60;;
15067;SDS011;7633;60.024;18.770;2023-12-20T04:46:12;1.13;;;0.40;;
15067;SDS011;7633;60.024;18.770;2023-12-20T04:48:37;1.13;;;0.80;;
15067;SDS011;7633;60.024;18.770;2023-12-20T04:51:02;1.60;;;1.03;;
15067;SDS011;7633;60.024;18.770;2023-12-20T04:53:28;0.30;;;0.30;;
15067;SDS011;7633;60.024;18.770;2023-12-20T04:55:53;0.40;;;0.20;;
15067;SDS011;7633;60.024;18.770;2023-12-20T04:58:19;1.77;;;0.40;;
15067;SDS011;7633;60.024;18.770;2023-12-20T05:00:44;0.13;;;0.13;;
15067;SDS011;7633;60.024;18.770;2023-12-20T05:03:09;1.83;;;0.40;;
15067;SDS011;7633;60.024;18.770;2023-12-20T05:05:35;2.67;;;0.20;;
15067;SDS011;7633;60.024;18.770;2023-12-20T05:08:00;1.10;;;0.20;;
15067;SDS011;7633;60.024;18.770;2023-12-20T05:10:26;0.00;;;0.00;;
15067;SDS011;7633;60.024;18.770;2023-12-20T05:12:53;0.63;;;0.33;;
15067;SDS011;7633;60.024;18.770;2023-12-20T05:15:18;0.93;;;0.10;;
15067;SDS011;7633;60.024;18.770;2023-12-20T05:17:43;0.10;;;0.10;;
15067;SDS011;7633;60.024;18.770;2023-12-20T05:20:09;2.47;;;0.40;;
15067;SDS011;7633;60.024;18.770;2023-12-20T05:22:34;3.20;;;0.50;;
15067;SDS011;7633;60.024;18.770;2023-12-20T05:24:59;3.13;;;0.63;;
15067;SDS011;7633;60.024;18.770;2023-12-20T05:27:24;1.37;;;0.33;;
15067;SDS011;7633;60.024;18.770;2023-12-20T05:29:50;2.67;;;0.50;;
15067;SDS011;7633;60.024;18.770;2023-12-20T05:32:15;0.40;;;0.40;;
15067;SDS011;7633;60.024;18.770;2023-12-20T05:34:41;0.47;;;0.27;;
15067;SDS011;7633;60.024;18.770;2023-12-20T05:37:06;2.13;;;0.63;;
15067;SDS011;7633;60.024;18.770;2023-12-20T05:39:31;3.07;;;0.40;;
15067;SDS011;7633;60.024;18.770;2023-12-20T05:41:56;0.53;;;0.40;;
15067;SDS011;7633;60.024;18.770;2023-12-20T05:44:22;4.13;;;0.50;;
15067;SDS011;7633;60.024;18.770;2023-12-20T05:46:47;0.10;;;0.10;;
15067;SDS011;7633;60.024;18.770;2023-12-20T05:49:12;1.60;;;0.60;;
15067;SDS011;7633;60.024;18.770;2023-12-20T05:51:39;5.60;;;0.37;;
15067;SDS011;7633;60.024;18.770;2023-12-20T05:54:04;3.30;;;0.27;;
15067;SDS011;7633;60.024;18.770;2023-12-20T05:56:29;0.60;;;0.33;;
15067;SDS011;7633;60.024;18.770;2023-12-20T05:58:54;0.00;;;0.00;;
15067;SDS011;7633;60.024;18.770;2023-12-20T06:01:20;3.20;;;0.43;;
15067;SDS011;7633;60.024;18.770;2023-12-20T06:03:45;3.67;;;0.43;;
15067;SDS011;7633;60.024;18.770;2023-12-20T06:06:13;2.27;;;0.40;;
15067;SDS011;7633;60.024;18.770;2023-12-20T06:08:39;0.73;;;0.30;;
15067;SDS011;7633;60.024;18.770;2023-12-20T06:11:04;1.80;;;0.57;;
15067;SDS011;7633;60.024;18.770;2023-12-20T06:13:30;1.70;;;0.40;;
15067;SDS011;7633;60.024;18.770;2023-12-20T06:15:56;1.60;;;0.30;;
15067;SDS011;7633;60.024;18.770;2023-12-20T06:18:21;0.03;;;0.03;;
15067;SDS011;7633;60.024;18.770;2023-12-20T06:20:47;0.40;;;0.30;;
15067;SDS011;7633;60.024;18.770;2023-12-20T06:23:13;0.73;;;0.40;;
15067;SDS011;7633;60.024;18.770;2023-12-20T06:25:38;0.10;;;0.10;;
15067;SDS011;7633;60.024;18.770;2023-12-20T06:28:04;0.63;;;0.30;;
15067;SDS011;7633;60.024;18.770;2023-12-20T06:30:29;2.47;;;1.07;;
15067;SDS011;7633;60.024;18.770;2023-12-20T06:32:55;2.50;;;0.80;;
15067;SDS011;7633;60.024;18.770;2023-12-20T06:35:22;4.53;;;0.90;;
15067;SDS011;7633;60.024;18.770;2023-12-20T06:37:48;2.37;;;0.60;;
15067;SDS011;7633;60.024;18.770;2023-12-20T06:40:13;4.47;;;0.63;;
15067;SDS011;7633;60.024;18.770;2023-12-20T06:42:38;0.33;;;0.10;;
15067;SDS011;7633;60.024;18.770;2023-12-20T06:45:04;1.43;;;0.43;;
15067;SDS011;7633;60.024;18.770;2023-12-20T06:47:29;1.20;;;1.20;;
15067;SDS011;7633;60.024;18.770;2023-12-20T06:49:54;0.17;;;0.17;;
15067;SDS011;7633;60.024;18.770;2023-12-20T06:52:20;0.17;;;0.10;;
15067;SDS011;7633;60.024;18.770;2023-12-20T06:54:45;0.20;;;0.20;;
15067;SDS011;7633;60.024;18.770;2023-12-20T06:57:10;1.03;;;0.40;;
15067;SDS011;7633;60.024;18.770;2023-12-20T06:59:39;3.80;;;0.93;;
15067;SDS011;7633;60.024;18.770;2023-12-20T07:02:05;2.90;;;0.77;;
15067;SDS011;7633;60.024;18.770;2023-12-20T07:04:30;2.27;;;0.73;;
15067;SDS011;7633;60.024;18.770;2023-12-20T07:06:55;3.93;;;0.90;;
15067;SDS011;7633;60.024;18.770;2023-12-20T07:09:22;1.60;;;0.50;;
15067;SDS011;7633;60.024;18.770;2023-12-20T07:11:47;4.23;;;1.23;;
15067;SDS011;7633;60.024;18.770;2023-12-20T07:14:13;4.80;;;0.87;;
15067;SDS011;7633;60.024;18.770;2023-12-20T07:16:38;2.27;;;0.80;;
15067;SDS011;7633;60.024;18.770;2023-12-20T07:19:03;0.67;;;0.37;;
15067;SDS011;7633;60.024;18.770;2023-12-20T07:21:29;2.13;;;0.50;;
15067;SDS011;7633;60.024;18.770;2023-12-20T07:23:54;0.67;;;0.30;;
15067;SDS011;7633;60.024;18.770;2023-12-20T07:26:19;8.23;;;1.47;;
15067;SDS011;7633;60.024;18.770;2023-12-20T07:28:45;1.03;;;0.20;;
15067;SDS011;7633;60.024;18.770;2023-12-20T07:31:11;2.13;;;0.50;;
15067;SDS011;7633;60.024;18.770;2023-12-20T07:33:36;3.03;;;0.90;;
15067;SDS011;7633;60.024;18.770;2023-12-20T07:36:02;2.33;;;1.30;;
15067;SDS011;7633;60.024;18.770;2023-12-20T07:38:28;2.10;;;0.83;;
15067;SDS011;7633;60.024;18.770;2023-12-20T07:40:53;3.97;;;0.80;;
15067;SDS011;7633;60.024;18.770;2023-12-20T07:43:18;3.70;;;1.10;;
15067;SDS011;7633;60.024;18.770;2023-12-20T07:45:43;5.17;;;1.03;;
15067;SDS011;7633;60.024;18.770;2023-12-20T07:48:09;4.50;;;0.90;;
15067;SDS011;7633;60.024;18.770;2023-12-20T07:50:34;5.43;;;1.20;;
15067;SDS011;7633;60.024;18.770;2023-12-20T07:52:59;6.77;;;0.77;;
15067;SDS011;7633;60.024;18.770;2023-12-20T07:55:26;2.00;;;0.80;;
15067;SDS011;7633;60.024;18.770;2023-12-20T07:57:51;2.80;;;0.87;;
15067;SDS011;7633;60.024;18.770;2023-12-20T08:00:17;2.23;;;0.70;;
15067;SDS011;7633;60.024;18.770;2023-12-20T08:02:42;1.83;;;0.73;;
15067;SDS011;7633;60.024;18.770;2023-12-20T08:05:07;4.07;;;1.00;;
15067;SDS011;7633;60.024;18.770;2023-12-20T08:07:33;2.07;;;0.80;;
15067;SDS011;7633;60.024;18.770;2023-12-20T08:09:58;3.43;;;1.00;;
15067;SDS011;7633;60.024;18.770;2023-12-20T08:12:23;2.13;;;0.90;;
15067;SDS011;7633;60.024;18.770;2023-12-20T08:14:50;3.33;;;1.17;;
15067;SDS011;7633;60.024;18.770;2023-12-20T08:17:16;5.13;;;0.93;;
15067;SDS011;7633;60.024;18.770;2023-12-20T08:19:43;4.60;;;0.97;;
15067;SDS011;7633;60.024;18.770;2023-12-20T08:22:08;3.30;;;0.80;;
15067;SDS011;7633;60.024;18.770;2023-12-20T08:24:34;5.90;;;1.20;;
15067;SDS011;7633;60.024;18.770;2023-12-20T08:26:59;4.10;;;1.00;;
15067;SDS011;7633;60.024;18.770;2023-12-20T08:29:24;5.40;;;1.53;;
15067;SDS011;7633;60.024;18.770;2023-12-20T08:31:53;4.07;;;1.00;;
15067;SDS011;7633;60.024;18.770;2023-12-20T08:34:19;1.30;;;0.60;;
15067;SDS011;7633;60.024;18.770;2023-12-20T08:36:44;1.70;;;0.93;;
15067;SDS011;7633;60.024;18.770;2023-12-20T08:39:10;1.67;;;0.50;;
15067;SDS011;7633;60.024;18.770;2023-12-20T08:41:35;3.17;;;1.00;;
15067;SDS011;7633;60.024;18.770;2023-12-20T08:44:00;2.50;;;0.80;;
15067;SDS011;7633;60.024;18.770;2023-12-20T08:46:25;1.90;;;0.60;;
15067;SDS011;7633;60.024;18.770;2023-12-20T08:48:51;4.83;;;1.37;;
15067;SDS011;7633;60.024;18.770;2023-12-20T08:51:16;3.17;;;0.90;;
15067;SDS011;7633;60.024;18.770;2023-12-20T08:53:41;3.97;;;0.80;;
15067;SDS011;7633;60.024;18.770;2023-12-20T08:56:07;5.20;;;1.33;;
15067;SDS011;7633;60.024;18.770;2023-12-20T08:58:32;3.30;;;1.10;;
15067;SDS011;7633;60.024;18.770;2023-12-20T09:00:58;2.17;;;0.67;;
15067;SDS011;7633;60.024;18.770;2023-12-20T09:03:23;2.93;;;1.13;;
15067;SDS011;7633;60.024;18.770;2023-12-20T09:05:49;4.80;;;1.10;;
15067;SDS011;7633;60.024;18.770;2023-12-20T09:08:14;5.00;;;1.27;;
15067;SDS011;7633;60.024;18.770;2023-12-20T09:10:40;2.33;;;0.80;;
15067;SDS011;7633;60.024;18.770;2023-12-20T09:13:05;4.13;;;0.93;;
15067;SDS011;7633;60.024;18.770;2023-12-20T09:15:30;2.77;;;0.80;;
15067;SDS011;7633;60.024;18.770;2023-12-20T09:17:55;3.70;;;0.90;;
15067;SDS011;7633;60.024;18.770;2023-12-20T09:20:21;2.23;;;0.97;;
15067;SDS011;7633;60.024;18.770;2023-12-20T09:22:48;4.37;;;1.00;;
15067;SDS011;7633;60.024;18.770;2023-12-20T09:25:13;2.20;;;1.10;;
15067;SDS011;7633;60.024;18.770;2023-12-20T09:27:40;3.10;;;0.97;;
15067;SDS011;7633;60.024;18.770;2023-12-20T09:30:06;4.30;;;0.80;;
15067;SDS011;7633;60.024;18.770;2023-12-20T09:32:32;2.87;;;0.90;;
15067;SDS011;7633;60.024;18.770;2023-12-20T09:34:57;5.53;;;1.20;;
15067;SDS011;7633;60.024;18.770;2023-12-20T09:37:23;2.13;;;1.00;;
15067;SDS011;7633;60.024;18.770;2023-12-20T09:39:48;2.33;;;0.73;;
15067;SDS011;7633;60.024;18.770;2023-12-20T09:42:14;2.77;;;0.83;;
15067;SDS011;7633;60.024;18.770;2023-12-20T09:44:41;5.57;;;1.27;;
15067;SDS011;7633;60.024;18.770;2023-12-20T09:47:07;3.47;;;1.10;;
15067;SDS011;7633;60.024;18.770;2023-12-20T09:49:33;0.30;;;0.10;;
15067;SDS011;7633;60.024;18.770;2023-12-20T09:51:58;3.87;;;0.70;;
15067;SDS011;7633;60.024;18.770;2023-12-20T09:54:25;4.37;;;1.10;;
15067;SDS011;7633;60.024;18.770;2023-12-20T09:56:50;2.17;;;0.90;;
15067;SDS011;7633;60.024;18.770;2023-12-20T09:59:16;3.20;;;1.10;;
15067;SDS011;7633;60.024;18.770;2023-12-20T10:01:41;5.60;;;1.13;;
15067;SDS011;7633;60.024;18.770;2023-12-20T10:04:10;1.23;;;0.57;;
15067;SDS011;7633;60.024;18.770;2023-12-20T10:06:43;1.63;;;0.53;;
15067;SDS011;7633;60.024;18.770;2023-12-20T10:09:09;3.07;;;0.83;;
15067;SDS011;7633;60.024;18.770;2023-12-20T10:11:38;1.20;;;0.70;;
15067;SDS011;7633;60.024;18.770;2023-12-20T10:14:07;0.53;;;0.50;;
15067;SDS011;7633;60.024;18.770;2023-12-20T10:16:32;2.33;;;0.80;;
15067;SDS011;7633;60.024;18.770;2023-12-20T10:18:58;2.87;;;1.00;;
15067;SDS011;7633;60.024;18.770;2023-12-20T10:21:24;1.73;;;0.80;;
15067;SDS011;7633;60.024;18.770;2023-12-20T10:23:51;1.90;;;0.87;;
15067;SDS011;7633;60.024;18.770;2023-12-20T10:26:20;0.60;;;0.53;;
15067;SDS011;7633;60.024;18.770;2023-12-20T10:28:55;0.83;;;0.53;;
15067;SDS011;7633;60.024;18.770;2023-12-20T10:31:31;1.10;;;0.73;;
15067;SDS011;7633;60.024;18.770;2023-12-20T10:33:57;0.77;;;0.60;;
15067;SDS011;7633;60.024;18.770;2023-12-20T10:36:23;0.90;;;0.70;;
15067;SDS011;7633;60.024;18.770;2023-12-20T10:38:49;2.27;;;0.80;;
15067;SDS011;7633;60.024;18.770;2023-12-20T10:41:15;1.70;;;1.10;;
15067;SDS011;7633;60.024;18.770;2023-12-20T10:43:42;1.50;;;0.80;;
15067;SDS011;7633;60.024;18.770;2023-12-20T10:46:08;1.60;;;0.73;;
15067;SDS011;7633;60.024;18.770;2023-12-20T10:48:33;1.43;;;0.80;;
15067;SDS011;7633;60.024;18.770;2023-12-20T10:50:59;0.93;;;0.80;;
15067;SDS011;7633;60.024;18.770;2023-12-20T10:53:26;1.30;;;0.70;;
15067;SDS011;7633;60.024;18.770;2023-12-20T10:55:52;1.53;;;0.53;;
15067;SDS011;7633;60.024;18.770;2023-12-20T10:58:20;0.97;;;0.60;;
15067;SDS011;7633;60.024;18.770;2023-12-20T11:00:47;1.63;;;0.77;;
15067;SDS011;7633;60.024;18.770;2023-12-20T11:03:15;2.53;;;0.50;;
15067;SDS011;7633;60.024;18.770;2023-12-20T11:08:09;2.00;;;0.80;;
15067;SDS011;7633;60.024;18.770;2023-12-20T11:13:16;1.27;;;0.70;;
15067;SDS011;7633;60.024;18.770;2023-12-20T11:15:42;1.67;;;0.70;;
15067;SDS011;7633;60.024;18.770;2023-12-20T11:18:08;0.90;;;0.60;;
15067;SDS011;7633;60.024;18.770;2023-12-20T11:20:37;1.90;;;0.93;;
15067;SDS011;7633;60.024;18.770;2023-12-20T11:23:03;0.60;;;0.50;;
15067;SDS011;7633;60.024;18.770;2023-12-20T11:25:28;2.07;;;0.70;;
15067;SDS011;7633;60.024;18.770;2023-12-20T11:28:06;3.00;;;0.90;;
15067;SDS011;7633;60.024;18.770;2023-12-20T11:33:08;2.10;;;0.93;;
15067;SDS011;7633;60.024;18.770;2023-12-20T11:35:34;1.53;;;0.70;;
15067;SDS011;7633;60.024;18.770;2023-12-20T11:38:00;1.63;;;1.00;;
15067;SDS011;7633;60.024;18.770;2023-12-20T11:40:25;2.17;;;1.20;;
15067;SDS011;7633;60.024;18.770;2023-12-20T11:42:51;4.83;;;2.77;;
15067;SDS011;7633;60.024;18.770;2023-12-20T11:45:18;5.70;;;3.10;;
15067;SDS011;7633;60.024;18.770;2023-12-20T11:47:46;1.93;;;1.30;;
15067;SDS011;7633;60.024;18.770;2023-12-20T11:50:12;1.53;;;1.00;;
15067;SDS011;7633;60.024;18.770;2023-12-20T11:52:37;2.10;;;1.13;;
15067;SDS011;7633;60.024;18.770;2023-12-20T11:55:03;1.50;;;1.13;;
15067;SDS011;7633;60.024;18.770;2023-12-20T11:57:29;0.80;;;0.80;;
15067;SDS011;7633;60.024;18.770;2023-12-20T11:59:54;2.07;;;1.20;;
15067;SDS011;7633;60.024;18.770;2023-12-20T12:02:21;0.90;;;0.80;;
15067;SDS011;7633;60.024;18.770;2023-12-20T12:04:48;1.47;;;1.07;;
15067;SDS011;7633;60.024;18.770;2023-12-20T12:07:13;1.37;;;1.27;;
15067;SDS011;7633;60.024;18.770;2023-12-20T12:09:38;1.83;;;0.97;;
15067;SDS011;7633;60.024;18.770;2023-12-20T12:12:04;1.20;;;1.00;;
15067;SDS011;7633;60.024;18.770;2023-12-20T12:14:29;1.67;;;1.30;;
15067;SDS011;7633;60.024;18.770;2023-12-20T12:16:54;2.53;;;1.40;;
15067;SDS011;7633;60.024;18.770;2023-12-20T12:19:20;1.53;;;1.10;;
15067;SDS011;7633;60.024;18.770;2023-12-20T12:21:46;1.33;;;1.23;;
15067;SDS011;7633;60.024;18.770;2023-12-20T12:24:11;1.20;;;1.10;;
15067;SDS011;7633;60.024;18.770;2023-12-20T12:26:37;1.50;;;1.10;;
15067;SDS011;7633;60.024;18.770;2023-12-20T12:29:03;1.77;;;1.27;;
15067;SDS011;7633;60.024;18.770;2023-12-20T12:31:28;2.10;;;1.43;;
15067;SDS011;7633;60.024;18.770;2023-12-20T12:33:53;1.67;;;1.07;;
15067;SDS011;7633;60.024;18.770;2023-12-20T12:36:19;2.83;;;1.50;;
15067;SDS011;7633;60.024;18.770;2023-12-20T12:38:44;1.80;;;1.13;;
15067;SDS011;7633;60.024;18.770;2023-12-20T12:41:10;1.90;;;1.30;;
15067;SDS011;7633;60.024;18.770;2023-12-20T12:43:37;1.43;;;1.20;;
15067;SDS011;7633;60.024;18.770;2023-12-20T12:46:03;1.97;;;1.33;;
15067;SDS011;7633;60.024;18.770;2023-12-20T12:48:28;1.80;;;1.30;;
15067;SDS011;7633;60.024;18.770;2023-12-20T12:50:54;1.93;;;1.40;;
15067;SDS011;7633;60.024;18.770;2023-12-20T12:53:19;1.40;;;1.30;;
15067;SDS011;7633;60.024;18.770;2023-12-20T12:55:44;2.47;;;1.70;;
15067;SDS011;7633;60.024;18.770;2023-12-20T12:58:10;2.00;;;1.50;;
15067;SDS011;7633;60.024;18.770;2023-12-20T13:00:35;2.30;;;1.50;;
15067;SDS011;7633;60.024;18.770;2023-12-20T13:03:00;2.77;;;1.50;;
15067;SDS011;7633;60.024;18.770;2023-12-20T13:05:26;2.03;;;1.47;;
15067;SDS011;7633;60.024;18.770;2023-12-20T13:07:51;1.23;;;1.10;;
15067;SDS011;7633;60.024;18.770;2023-12-20T13:10:16;1.63;;;1.20;;
15067;SDS011;7633;60.024;18.770;2023-12-20T13:12:42;2.20;;;1.17;;
15067;SDS011;7633;60.024;18.770;2023-12-20T13:15:08;1.90;;;1.20;;
15067;SDS011;7633;60.024;18.770;2023-12-20T13:17:34;1.47;;;1.17;;
15067;SDS011;7633;60.024;18.770;2023-12-20T13:19:59;2.00;;;1.30;;
15067;SDS011;7633;60.024;18.770;2023-12-20T13:22:25;1.53;;;1.40;;
15067;SDS011;7633;60.024;18.770;2023-12-20T13:24:50;2.50;;;1.17;;
15067;SDS011;7633;60.024;18.770;2023-12-20T13:27:15;2.60;;;1.23;;
15067;SDS011;7633;60.024;18.770;2023-12-20T13:29:41;2.07;;;1.23;;
15067;SDS011;7633;60.024;18.770;2023-12-20T13:32:06;2.27;;;1.17;;
15067;SDS011;7633;60.024;18.770;2023-12-20T13:34:31;1.40;;;1.00;;
15067;SDS011;7633;60.024;18.770;2023-12-20T13:36:57;2.80;;;1.00;;
15067;SDS011;7633;60.024;18.770;2023-12-20T13:39:22;1.37;;;1.00;;
15067;SDS011;7633;60.024;18.770;2023-12-20T13:41:47;2.13;;;1.13;;
15067;SDS011;7633;60.024;18.770;2023-12-20T13:44:13;1.93;;;1.27;;
15067;SDS011;7633;60.024;18.770;2023-12-20T13:46:38;2.43;;;1.00;;
15067;SDS011;7633;60.024;18.770;2023-12-20T13:49:04;1.77;;;1.10;;
15067;SDS011;7633;60.024;18.770;2023-12-20T13:51:30;1.93;;;1.10;;
15067;SDS011;7633;60.024;18.770;2023-12-20T13:53:55;1.00;;;0.90;;
15067;SDS011;7633;60.024;18.770;2023-12-20T13:56:20;2.23;;;1.20;;
15067;SDS011;7633;60.024;18.770;2023-12-20T13:58:47;1.17;;;0.83;;
15067;SDS011;7633;60.024;18.770;2023-12-20T14:01:12;3.00;;;1.20;;
15067;SDS011;7633;60.024;18.770;2023-12-20T14:03:37;3.97;;;1.30;;
15067;SDS011;7633;60.024;18.770;2023-12-20T14:06:03;14.17;;;2.30;;
15067;SDS011;7633;60.024;18.770;2023-12-20T14:08:28;3.47;;;1.10;;
15067;SDS011;7633;60.024;18.770;2023-12-20T14:10:54;1.33;;;0.83;;
15067;SDS011;7633;60.024;18.770;2023-12-20T14:13:19;2.83;;;2.23;;
15067;SDS011;7633;60.024;18.770;2023-12-20T14:15:46;1.70;;;1.40;;
15067;SDS011;7633;60.024;18.770;2023-12-20T14:18:12;2.73;;;1.10;;
15067;SDS011;7633;60.024;18.770;2023-12-20T14:20:39;1.80;;;1.33;;
15067;SDS011;7633;60.024;18.770;2023-12-20T14:23:06;2.83;;;1.40;;
15067;SDS011;7633;60.024;18.770;2023-12-20T14:25:32;3.20;;;1.37;;
15067;SDS011;7633;60.024;18.770;2023-12-20T14:27:57;3.00;;;1.63;;
15067;SDS011;7633;60.024;18.770;2023-12-20T14:30:23;2.60;;;1.73;;
15067;SDS011;7633;60.024;18.770;2023-12-20T14:32:48;3.27;;;1.73;;
15067;SDS011;7633;60.024;18.770;2023-12-20T14:35:13;3.67;;;1.83;;
15067;SDS011;7633;60.024;18.770;2023-12-20T14:37:39;3.23;;;1.90;;
15067;SDS011;7633;60.024;18.770;2023-12-20T14:40:06;2.30;;;1.60;;
15067;SDS011;7633;60.024;18.770;2023-12-20T14:42:31;3.20;;;1.40;;
15067;SDS011;7633;60.024;18.770;2023-12-20T14:44:57;4.03;;;1.50;;